Time;durP1;ratioP1;P1;durP2;ratioP2;P2;SDS_P1;SDS_P2;PMS_P1;PMS_P2;Temp;Humidity;BMP_temperature;BMP_pressure;BME280_temperature;BME280_humidity;BME280_pressure;Samples;Min_cycle;Max_cycle;Signal;HPM_P1;HPM_P2
2023/10/11 00:00:25;;;;;;;;;;;21.00;74.90;;;;;;4952277;28;97761;-39
2023/10/11 00:02:50;;;;;;;;;;;21.10;74.80;;;;;;4948023;28;95066;-41
2023/10/11 00:05:17;;;;;;;;;;;21.00;74.70;;;;;;4948578;28;97074;-40
2023/10/11 00:07:44;;;;;;;;;;;21.00;74.70;;;;;;4955792;28;95838;-40
2023/10/11 00:10:13;;;;;;;;;;;21.00;74.90;;;;;;4948923;28;95834;-40
2023/10/11 00:12:41;;;;;;;;;;;21.00;74.70;;;;;;4955383;28;95453;-40
2023/10/11 00:15:10;;;;;;;;;;;21.00;74.90;;;;;;4949201;28;100830;-39
2023/10/11 00:17:39;;;;;;;;;;;21.00;74.80;;;;;;4960503;28;96010;-40
2023/10/11 00:20:16;;;;;;;;;;;21.00;74.80;;;;;;4956154;28;94828;-40
2023/10/11 00:22:42;;;;;;;;;;;21.00;74.70;;;;;;4945531;28;96946;-39
2023/10/11 00:25:08;;;;;;;;;;;21.00;74.80;;;;;;4958691;28;94293;-40
2023/10/11 00:27:33;;;;;;;;;;;21.00;75.50;;;;;;4941124;28;95702;-39
2023/10/11 00:29:59;;;;;;;;;;;21.00;74.80;;;;;;4955972;28;94814;-39
2023/10/11 00:32:24;;;;;;;;;;;20.90;74.70;;;;;;4955162;28;95836;-40
2023/10/11 00:34:50;;;;;;;;;;;20.90;74.80;;;;;;4957765;28;95859;-39
2023/10/11 00:37:16;;;;;;;;;;;20.90;74.70;;;;;;4954167;28;94757;-40
2023/10/11 00:39:43;;;;;;;;;;;20.90;74.70;;;;;;4954814;28;95298;-39
2023/10/11 00:42:10;;;;;;;;;;;20.90;75.40;;;;;;4954454;28;94768;-39
2023/10/11 00:44:36;;;;;;;;;;;20.90;74.70;;;;;;4955345;28;95018;-40
2023/10/11 00:47:04;;;;;;;;;;;20.90;74.80;;;;;;4955597;28;94903;-39
2023/10/11 00:49:39;;;;;;;;;;;20.90;74.70;;;;;;4962760;28;94059;-39
2023/10/11 00:52:06;;;;;;;;;;;20.90;74.80;;;;;;4953077;28;98684;-39
2023/10/11 00:54:42;;;;;;;;;;;20.90;74.80;;;;;;4941803;28;94842;-40
2023/10/11 00:57:08;;;;;;;;;;;20.80;74.80;;;;;;4958361;28;95904;-40
2023/10/11 00:59:35;;;;;;;;;;;20.80;74.80;;;;;;4954641;28;94947;-39
2023/10/11 01:02:01;;;;;;;;;;;20.90;74.80;;;;;;4950558;28;95332;-39
2023/10/11 01:04:33;;;;;;;;;;;20.80;74.70;;;;;;4948282;28;95255;-40
2023/10/11 01:06:59;;;;;;;;;;;20.80;74.70;;;;;;4958716;28;94738;-40
2023/10/11 01:09:28;;;;;;;;;;;20.80;74.90;;;;;;4950922;28;95191;-39
2023/10/11 01:11:54;;;;;;;;;;;20.80;74.80;;;;;;4957231;28;95056;-40
2023/10/11 01:14:19;;;;;;;;;;;20.80;74.70;;;;;;4947427;28;95346;-39
2023/10/11 01:16:45;;;;;;;;;;;20.80;74.70;;;;;;4956646;28;95847;-40
2023/10/11 01:19:11;;;;;;;;;;;20.80;74.80;;;;;;4949541;28;97246;-39
2023/10/11 01:21:37;;;;;;;;;;;20.80;74.90;;;;;;4956468;28;96284;-39
2023/10/11 01:24:03;;;;;;;;;;;20.80;74.90;;;;;;4955246;28;95352;-39
2023/10/11 01:26:30;;;;;;;;;;;20.80;74.80;;;;;;4954726;28;95444;-39
2023/10/11 01:28:56;;;;;;;;;;;20.80;75.60;;;;;;4932003;28;96019;-39
2023/10/11 01:31:22;;;;;;;;;;;20.80;74.90;;;;;;4950123;28;95379;-39
2023/10/11 01:33:49;;;;;;;;;;;20.80;74.90;;;;;;4955287;28;94938;-40
2023/10/11 01:36:15;;;;;;;;;;;20.70;74.90;;;;;;4943220;28;94791;-39
2023/10/11 01:38:50;;;;;;;;;;;20.70;75.00;;;;;;4945495;28;93925;-40
2023/10/11 01:41:18;;;;;;;;;;;20.70;74.80;;;;;;4950146;28;94754;-39
2023/10/11 01:43:46;;;;;;;;;;;20.80;74.80;;;;;;4958510;28;95516;-40
2023/10/11 01:46:12;;;;;;;;;;;20.70;74.70;;;;;;4951395;28;95858;-40
2023/10/11 01:48:38;;;;;;;;;;;20.70;74.90;;;;;;4951099;28;95440;-39
2023/10/11 01:51:05;;;;;;;;;;;20.70;74.90;;;;;;4952197;28;96750;-39
2023/10/11 01:53:31;;;;;;;;;;;20.70;75.00;;;;;;4959437;28;98116;-40
2023/10/11 01:55:57;;;;;;;;;;;20.70;74.90;;;;;;4953958;28;94744;-39
2023/10/11 01:58:22;;;;;;;;;;;20.70;74.90;;;;;;4953015;28;94883;-41
2023/10/11 02:00:49;;;;;;;;;;;20.70;74.90;;;;;;4953899;28;94796;-39
2023/10/11 02:03:15;;;;;;;;;;;20.70;75.00;;;;;;4949185;28;93998;-39
2023/10/11 02:05:40;;;;;;;;;;;20.60;74.90;;;;;;4950814;28;96589;-39
2023/10/11 02:08:06;;;;;;;;;;;20.60;74.90;;;;;;4955247;28;95383;-39
2023/10/11 02:10:36;;;;;;;;;;;20.60;74.90;;;;;;4947894;28;96761;-39
2023/10/11 02:13:03;;;;;;;;;;;20.70;75.00;;;;;;4956739;28;95230;-40
2023/10/11 02:15:34;;;;;;;;;;;20.60;74.90;;;;;;4949721;28;94790;-40
2023/10/11 02:18:00;;;;;;;;;;;20.60;75.00;;;;;;4957236;28;95236;-40
2023/10/11 02:20:25;;;;;;;;;;;20.60;74.90;;;;;;4950282;28;96689;-39
2023/10/11 02:22:52;;;;;;;;;;;20.60;74.90;;;;;;4950163;28;96142;-39
2023/10/11 02:25:18;;;;;;;;;;;20.60;75.00;;;;;;4955334;28;94806;-39
2023/10/11 02:27:44;;;;;;;;;;;20.60;75.00;;;;;;4938148;28;94970;-40
2023/10/11 02:30:14;;;;;;;;;;;20.60;74.90;;;;;;4950789;28;94884;-39
2023/10/11 02:32:42;;;;;;;;;;;20.60;74.90;;;;;;4959023;28;94886;-40
2023/10/11 02:35:08;;;;;;;;;;;20.60;74.90;;;;;;4953164;28;99207;-39
2023/10/11 02:37:36;;;;;;;;;;;20.60;74.80;;;;;;4954096;28;99190;-40
2023/10/11 02:40:07;;;;;;;;;;;20.60;74.90;;;;;;4950321;28;95209;-40
2023/10/11 02:42:36;;;;;;;;;;;20.60;74.80;;;;;;4950854;28;94726;-39
2023/10/11 02:45:07;;;;;;;;;;;20.60;74.80;;;;;;4952987;28;95009;-40
2023/10/11 02:47:35;;;;;;;;;;;20.60;74.90;;;;;;4946450;28;95226;-40
2023/10/11 02:50:08;;;;;;;;;;;20.50;74.80;;;;;;4945723;28;96383;-40
2023/10/11 02:52:36;;;;;;;;;;;20.60;74.90;;;;;;4955768;28;95761;-39
2023/10/11 02:55:12;;;;;;;;;;;20.60;74.90;;;;;;4963264;28;95110;-40
2023/10/11 02:57:40;;;;;;;;;;;20.60;75.00;;;;;;4955395;28;94972;-40
2023/10/11 03:00:21;;;;;;;;;;;20.50;74.80;;;;;;4954498;28;96225;-39
2023/10/11 03:02:55;;;;;;;;;;;20.50;74.80;;;;;;4955554;28;95014;-39
2023/10/11 03:05:26;;;;;;;;;;;20.50;74.90;;;;;;4948733;28;97640;-40
2023/10/11 03:08:13;;;;;;;;;;;20.50;74.90;;;;;;4953926;28;94177;-39
2023/10/11 03:10:56;;;;;;;;;;;20.50;74.80;;;;;;4949733;28;98825;-39
2023/10/11 03:13:26;;;;;;;;;;;20.50;74.80;;;;;;4944765;28;94676;-40
2023/10/11 03:15:54;;;;;;;;;;;20.50;75.00;;;;;;4953357;28;95254;-40
2023/10/11 03:18:25;;;;;;;;;;;20.50;75.00;;;;;;4955120;28;93833;-39
2023/10/11 03:20:51;;;;;;;;;;;20.50;74.90;;;;;;4944591;28;95301;-39
2023/10/11 03:23:20;;;;;;;;;;;20.50;74.80;;;;;;4954837;28;94661;-40
2023/10/11 03:25:49;;;;;;;;;;;20.50;74.90;;;;;;4946443;28;101230;-39
2023/10/11 03:28:15;;;;;;;;;;;20.50;74.90;;;;;;4947860;28;95090;-39
2023/10/11 03:30:42;;;;;;;;;;;20.50;74.90;;;;;;4944900;28;96281;-39
2023/10/11 03:33:08;;;;;;;;;;;20.50;75.60;;;;;;4928144;28;97655;-39
2023/10/11 03:35:34;;;;;;;;;;;20.50;74.90;;;;;;4948350;28;95235;-40
2023/10/11 03:38:00;;;;;;;;;;;20.50;74.90;;;;;;4948085;28;94776;-40
2023/10/11 03:40:54;;;;;;;;;;;20.40;74.80;;;;;;4949793;28;95236;-40
2023/10/11 03:43:17;;;;;;;;;;;20.50;74.90;;;;;;4945723;28;95962;-39
2023/10/11 03:45:51;;;;;;;;;;;20.40;74.80;;;;;;4939671;28;96117;-40
2023/10/11 03:48:18;;;;;;;;;;;20.40;74.80;;;;;;4953594;28;96162;-39
2023/10/11 03:50:52;;;;;;;;;;;20.40;74.80;;;;;;4942317;28;96681;-39
2023/10/11 03:53:18;;;;;;;;;;;20.40;74.80;;;;;;4944885;28;95207;-39
2023/10/11 03:55:48;;;;;;;;;;;20.40;74.80;;;;;;4947131;28;95327;-39
2023/10/11 03:58:28;;;;;;;;;;;20.40;74.90;;;;;;4945860;28;95040;-39
2023/10/11 04:01:00;;;;;;;;;;;20.40;74.80;;;;;;4941978;28;97804;-40
2023/10/11 04:03:26;;;;;;;;;;;20.40;74.80;;;;;;4938503;28;95277;-40
2023/10/11 04:05:51;;;;;;;;;;;20.40;75.50;;;;;;4944829;28;95697;-39
2023/10/11 04:08:24;;;;;;;;;;;20.40;74.70;;;;;;4942333;28;94948;-39
2023/10/11 04:10:51;;;;;;;;;;;20.30;75.00;;;;;;4945527;28;95214;-39
2023/10/11 04:13:19;;;;;;;;;;;20.40;74.80;;;;;;4950061;28;95083;-40
2023/10/11 04:15:49;;;;;;;;;;;20.40;74.90;;;;;;4945259;28;96930;-39
2023/10/11 04:18:20;;;;;;;;;;;20.30;74.80;;;;;;4932890;28;96162;-39
2023/10/11 04:20:59;;;;;;;;;;;20.30;74.80;;;;;;4941592;28;94809;-39
2023/10/11 04:23:27;;;;;;;;;;;20.30;74.80;;;;;;4942818;28;95554;-39
2023/10/11 04:25:55;;;;;;;;;;;20.30;74.80;;;;;;4942995;28;94646;-39
2023/10/11 04:28:23;;;;;;;;;;;20.30;75.10;;;;;;4943752;28;98080;-39
2023/10/11 04:30:53;;;;;;;;;;;20.30;74.80;;;;;;4939838;28;95177;-39
2023/10/11 04:33:21;;;;;;;;;;;20.30;74.90;;;;;;4934822;28;94166;-39
2023/10/11 04:35:55;;;;;;;;;;;20.30;74.90;;;;;;4940450;28;98238;-40
2023/10/11 04:38:21;;;;;;;;;;;20.30;74.80;;;;;;4938250;28;94743;-41
2023/10/11 04:40:50;;;;;;;;;;;20.30;74.80;;;;;;4951868;28;96775;-40
2023/10/11 04:43:23;;;;;;;;;;;20.30;74.80;;;;;;4941977;28;96608;-39
2023/10/11 04:45:51;;;;;;;;;;;20.20;74.90;;;;;;4928786;28;95011;-40
2023/10/11 04:48:18;;;;;;;;;;;20.30;74.90;;;;;;4947658;28;94554;-40
2023/10/11 04:50:45;;;;;;;;;;;20.30;74.80;;;;;;4946097;28;97835;-40
2023/10/11 04:53:17;;;;;;;;;;;20.30;74.90;;;;;;4946177;28;100963;-40
2023/10/11 04:55:46;;;;;;;;;;;20.30;75.00;;;;;;4948102;28;95756;-39
2023/10/11 04:58:21;;;;;;;;;;;20.20;75.70;;;;;;4950834;28;94890;-41
2023/10/11 05:00:48;;;;;;;;;;;20.20;75.30;;;;;;4950723;28;95741;-39
2023/10/11 05:03:17;;;;;;;;;;;20.20;75.30;;;;;;4947119;28;94903;-39
2023/10/11 05:05:58;;;;;;;;;;;20.20;75.60;;;;;;4946789;28;99484;-39
2023/10/11 05:11:19;;;;;;;;;;;20.10;75.60;;;;;;4964098;28;94857;-39
2023/10/11 05:13:59;;;;;;;;;;;20.10;76.00;;;;;;4948902;28;99606;-40
2023/10/11 05:16:25;;;;;;;;;;;20.10;75.60;;;;;;4945950;28;94926;-39
2023/10/11 05:18:50;;;;;;;;;;;20.10;75.90;;;;;;4940830;28;95575;-40
2023/10/11 05:21:16;;;;;;;;;;;20.10;75.90;;;;;;4947870;28;95468;-39
2023/10/11 05:24:13;;;;;;;;;;;20.10;76.10;;;;;;4939165;28;93977;-39
2023/10/11 05:26:47;;;;;;;;;;;20.10;76.10;;;;;;4939453;28;95078;-40
2023/10/11 05:29:24;;;;;;;;;;;20.10;76.20;;;;;;4948567;28;94811;-39
2023/10/11 05:35:07;;;;;;;;;;;20.00;76.50;;;;;;4882309;28;95488;-40
2023/10/11 05:51:19;;;;;;;;;;;20.00;77.00;;;;;;4927669;28;94418;-40
2023/10/11 05:53:50;;;;;;;;;;;20.00;76.90;;;;;;4949161;28;95271;-40
2023/10/11 05:56:21;;;;;;;;;;;20.00;76.90;;;;;;4955458;28;97203;-42
2023/10/11 05:58:51;;;;;;;;;;;20.00;76.90;;;;;;4948926;28;96617;-40
2023/10/11 06:01:19;;;;;;;;;;;20.00;77.00;;;;;;4948701;28;95051;-38
2023/10/11 06:03:48;;;;;;;;;;;20.00;76.90;;;;;;4948855;28;94948;-40
2023/10/11 06:09:16;;;;;;;;;;;20.00;76.80;;;;;;4939341;28;95020;-40
2023/10/11 06:11:47;;;;;;;;;;;20.00;76.70;;;;;;4953502;28;96112;-40
2023/10/11 06:14:16;;;;;;;;;;;20.00;76.60;;;;;;4954426;28;95268;-39
2023/10/11 06:16:43;;;;;;;;;;;20.00;76.50;;;;;;4942641;28;94019;-39
2023/10/11 06:19:25;;;;;;;;;;;20.00;76.40;;;;;;4949008;28;94795;-40
2023/10/11 06:21:58;;;;;;;;;;;20.00;76.40;;;;;;4945102;28;94755;-39
2023/10/11 06:24:30;;;;;;;;;;;20.00;76.50;;;;;;4948053;28;97869;-41
2023/10/11 06:26:56;;;;;;;;;;;20.00;76.40;;;;;;4946921;28;97839;-40
2023/10/11 06:29:29;;;;;;;;;;;20.00;76.20;;;;;;4952595;28;95243;-40
2023/10/11 06:31:55;;;;;;;;;;;20.10;76.40;;;;;;4952192;28;98139;-40
2023/10/11 06:34:32;;;;;;;;;;;20.10;76.20;;;;;;4934080;28;98199;-40
2023/10/11 06:36:58;;;;;;;;;;;20.20;76.30;;;;;;4945280;28;100605;-40
2023/10/11 06:42:57;;;;;;;;;;;20.30;75.90;;;;;;4950387;28;93731;-41
2023/10/11 06:45:01;;;;;;;;;;;20.30;75.60;;;;;;4947444;28;94980;-40
2023/10/11 06:47:33;;;;;;;;;;;20.30;75.40;;;;;;4947779;28;96029;-41
2023/10/11 06:49:59;;;;;;;;;;;20.40;75.10;;;;;;4943264;28;96851;-39
2023/10/11 06:52:30;;;;;;;;;;;20.50;75.00;;;;;;4948661;28;94823;-41
2023/10/11 06:55:14;;;;;;;;;;;20.50;75.10;;;;;;4947158;28;94470;-38
2023/10/11 06:57:54;;;;;;;;;;;20.50;74.90;;;;;;4943613;28;94030;-39
2023/10/11 07:00:22;;;;;;;;;;;20.60;75.00;;;;;;4943637;28;95821;-37
2023/10/11 07:02:48;;;;;;;;;;;20.60;74.70;;;;;;4948402;28;94927;-37
2023/10/11 07:05:25;;;;;;;;;;;20.70;74.50;;;;;;4953580;28;96017;-38
2023/10/11 07:07:52;;;;;;;;;;;20.70;74.10;;;;;;4952192;28;97315;-37
2023/10/11 07:10:40;;;;;;;;;;;20.70;73.90;;;;;;4944654;28;96339;-39
2023/10/11 07:13:06;;;;;;;;;;;20.70;73.70;;;;;;4943576;28;94786;-39
2023/10/11 07:15:37;;;;;;;;;;;20.80;73.40;;;;;;4948500;28;96507;-38
2023/10/11 07:18:10;;;;;;;;;;;20.80;73.20;;;;;;4946712;28;97813;-40
2023/10/11 07:20:49;;;;;;;;;;;20.80;73.10;;;;;;4929812;28;95029;-40
2023/10/11 07:23:20;;;;;;;;;;;20.80;73.50;;;;;;4946223;28;94524;-42
2023/10/11 07:25:47;;;;;;;;;;;20.90;73.10;;;;;;4944355;28;94698;-41
2023/10/11 07:28:35;;;;;;;;;;;20.90;72.60;;;;;;4947739;28;95277;-41
2023/10/11 07:31:00;;;;;;;;;;;20.90;72.80;;;;;;4944690;28;95057;-39
2023/10/11 07:33:26;;;;;;;;;;;20.90;72.50;;;;;;4953718;28;97999;-41
2023/10/11 07:35:51;;;;;;;;;;;20.90;72.50;;;;;;4949842;28;98696;-37
2023/10/11 07:38:17;;;;;;;;;;;21.00;72.60;;;;;;4939145;28;95299;-42
2023/10/11 07:40:46;;;;;;;;;;;21.00;72.40;;;;;;4943368;28;96667;-38
2023/10/11 07:43:16;;;;;;;;;;;21.00;72.80;;;;;;4947760;28;95410;-41
2023/10/11 07:45:47;;;;;;;;;;;21.00;73.50;;;;;;4958162;28;94663;-40
2023/10/11 07:48:18;;;;;;;;;;;21.10;73.70;;;;;;4946894;28;94381;-40
2023/10/11 07:50:46;;;;;;;;;;;21.10;73.80;;;;;;4952843;28;95094;-39
2023/10/11 07:53:13;;;;;;;;;;;21.20;73.60;;;;;;4940186;28;95130;-39
2023/10/11 07:55:45;;;;;;;;;;;21.20;73.70;;;;;;4941084;28;95369;-39
2023/10/11 07:58:11;;;;;;;;;;;21.20;73.90;;;;;;4949082;28;94771;-38
2023/10/11 08:00:41;;;;;;;;;;;21.20;73.90;;;;;;4949008;28;94988;-40
2023/10/11 08:03:11;;;;;;;;;;;21.20;74.20;;;;;;4945338;28;95329;-40
2023/10/11 08:05:44;;;;;;;;;;;21.20;74.30;;;;;;4943787;28;100846;-39
2023/10/11 08:08:13;;;;;;;;;;;21.30;74.60;;;;;;4935964;28;95857;-38
2023/10/11 08:10:44;;;;;;;;;;;21.40;74.70;;;;;;4948838;28;95377;-40
2023/10/11 08:13:23;;;;;;;;;;;21.40;74.80;;;;;;4947822;28;94980;-41
2023/10/11 08:15:55;;;;;;;;;;;21.40;74.70;;;;;;4946412;28;95309;-42
2023/10/11 08:18:21;;;;;;;;;;;21.40;75.00;;;;;;4941635;28;95228;-40
2023/10/11 08:20:47;;;;;;;;;;;21.50;75.00;;;;;;4942546;28;94950;-41
2023/10/11 08:23:27;;;;;;;;;;;21.50;74.80;;;;;;4953729;28;97053;-40
2023/10/11 08:25:52;;;;;;;;;;;21.50;74.90;;;;;;4936790;28;95702;-40
2023/10/11 08:28:27;;;;;;;;;;;21.40;74.80;;;;;;4944643;28;95288;-40
2023/10/11 08:30:56;;;;;;;;;;;21.40;74.60;;;;;;4943390;28;96550;-39
2023/10/11 08:33:22;;;;;;;;;;;21.40;74.20;;;;;;4949325;28;94874;-41
2023/10/11 08:35:52;;;;;;;;;;;21.30;73.40;;;;;;4949061;28;97276;-41
2023/10/11 08:38:18;;;;;;;;;;;21.20;72.80;;;;;;4951440;28;98657;-40
2023/10/11 08:40:47;;;;;;;;;;;21.20;72.90;;;;;;4949420;28;94664;-42
2023/10/11 08:43:15;;;;;;;;;;;21.10;73.20;;;;;;4940810;28;94566;-38
2023/10/11 08:45:44;;;;;;;;;;;21.10;73.30;;;;;;4951763;28;95452;-40
2023/10/11 08:48:11;;;;;;;;;;;21.10;73.10;;;;;;4947525;28;98203;-41
2023/10/11 08:50:37;;;;;;;;;;;21.10;73.30;;;;;;4954090;28;96386;-39
2023/10/11 08:53:09;;;;;;;;;;;21.10;73.30;;;;;;4950920;28;95509;-38
2023/10/11 08:55:39;;;;;;;;;;;21.10;73.30;;;;;;4949592;28;96059;-39
2023/10/11 08:58:12;;;;;;;;;;;21.10;73.20;;;;;;4952091;28;95223;-39
2023/10/11 09:00:38;;;;;;;;;;;21.10;73.10;;;;;;4948591;28;97090;-39
2023/10/11 09:03:17;;;;;;;;;;;21.10;73.30;;;;;;4951973;28;95390;-40
2023/10/11 09:05:43;;;;;;;;;;;21.10;73.30;;;;;;4951047;28;94972;-38
2023/10/11 09:08:31;;;;;;;;;;;21.10;73.20;;;;;;4944046;28;98999;-39
2023/10/11 09:11:05;;;;;;;;;;;21.10;73.10;;;;;;4948772;28;95292;-37
2023/10/11 09:13:36;;;;;;;;;;;21.10;73.20;;;;;;4947619;28;94449;-42
2023/10/11 09:16:08;;;;;;;;;;;21.10;73.20;;;;;;4946119;28;95997;-42
2023/10/11 09:18:34;;;;;;;;;;;21.10;73.30;;;;;;4957768;28;95348;-42
2023/10/11 09:21:09;;;;;;;;;;;21.10;73.30;;;;;;4945588;28;97548;-43
2023/10/11 09:23:35;;;;;;;;;;;21.10;73.30;;;;;;4952238;28;95509;-43
2023/10/11 09:26:02;;;;;;;;;;;21.00;73.40;;;;;;4945565;28;96992;-43
2023/10/11 09:28:27;;;;;;;;;;;21.00;73.50;;;;;;4948577;28;95056;-39
2023/10/11 09:31:10;;;;;;;;;;;21.00;73.50;;;;;;4947057;28;94994;-36
2023/10/11 09:33:49;;;;;;;;;;;21.10;73.60;;;;;;4956883;28;95082;-37
2023/10/11 09:36:16;;;;;;;;;;;21.10;73.60;;;;;;4947189;28;95196;-37
2023/10/11 09:38:42;;;;;;;;;;;21.10;73.50;;;;;;4945746;28;99047;-38
2023/10/11 09:41:08;;;;;;;;;;;21.10;73.60;;;;;;4949107;28;94907;-40
2023/10/11 09:43:44;;;;;;;;;;;21.10;74.00;;;;;;4951617;28;97618;-40
2023/10/11 09:46:11;;;;;;;;;;;21.10;73.60;;;;;;4945684;28;95664;-38
2023/10/11 09:48:40;;;;;;;;;;;21.20;73.60;;;;;;4948472;28;95393;-37
2023/10/11 09:51:08;;;;;;;;;;;21.10;73.60;;;;;;4947417;28;94727;-37
2023/10/11 09:53:41;;;;;;;;;;;21.20;73.60;;;;;;4946160;28;95766;-39
2023/10/11 09:56:29;;;;;;;;;;;21.20;73.70;;;;;;4947135;28;95624;-39
2023/10/11 09:59:01;;;;;;;;;;;21.20;73.70;;;;;;4942295;28;97836;-40
2023/10/11 10:01:32;;;;;;;;;;;21.20;73.60;;;;;;4931922;28;94842;-39
2023/10/11 10:04:04;;;;;;;;;;;21.30;73.70;;;;;;4951495;28;94385;-42
2023/10/11 10:06:30;;;;;;;;;;;21.30;73.70;;;;;;4933101;28;98452;-42
2023/10/11 10:09:16;;;;;;;;;;;21.30;73.80;;;;;;4949588;28;94533;-37
2023/10/11 10:12:05;;;;;;;;;;;21.30;73.70;;;;;;4952601;28;95597;-37
2023/10/11 10:14:35;;;;;;;;;;;21.30;73.70;;;;;;4942818;28;94764;-39
2023/10/11 10:17:15;;;;;;;;;;;21.30;73.80;;;;;;4948821;28;95911;-42
2023/10/11 10:19:45;;;;;;;;;;;21.40;73.80;;;;;;4948067;28;94992;-41
2023/10/11 10:22:16;;;;;;;;;;;21.40;73.70;;;;;;4947736;28;95005;-38
2023/10/11 10:24:43;;;;;;;;;;;21.40;73.70;;;;;;4954175;28;94643;-39
2023/10/11 10:27:33;;;;;;;;;;;21.50;73.70;;;;;;4941502;28;95648;-38
2023/10/11 10:30:04;;;;;;;;;;;21.50;73.60;;;;;;4940948;28;94416;-42
2023/10/11 10:32:29;;;;;;;;;;;21.50;73.40;;;;;;4943815;28;95157;-40
2023/10/11 10:35:18;;;;;;;;;;;21.50;73.50;;;;;;4942791;28;94747;-42
2023/10/11 10:37:46;;;;;;;;;;;21.60;73.50;;;;;;4944241;28;96515;-41
2023/10/11 10:40:18;;;;;;;;;;;21.60;73.40;;;;;;4944435;28;94880;-42
2023/10/11 10:43:02;;;;;;;;;;;21.60;73.40;;;;;;4941112;28;94782;-40
2023/10/11 10:45:28;;;;;;;;;;;21.60;73.30;;;;;;4943653;28;98269;-41
2023/10/11 10:48:10;;;;;;;;;;;21.70;73.30;;;;;;4946611;28;95812;-42
2023/10/11 10:51:04;;;;;;;;;;;21.70;73.70;;;;;;4942266;28;95114;-43
2023/10/11 10:53:38;;;;;;;;;;;21.70;73.60;;;;;;4940679;28;95589;-43
2023/10/11 10:56:04;;;;;;;;;;;21.70;73.70;;;;;;4941752;28;94220;-42
2023/10/11 10:58:30;;;;;;;;;;;21.70;73.80;;;;;;4942110;28;95769;-42
2023/10/11 11:00:59;;;;;;;;;;;21.70;73.70;;;;;;4939320;28;94768;-43
2023/10/11 11:03:25;;;;;;;;;;;21.70;73.70;;;;;;4938415;28;97355;-43
2023/10/11 11:05:57;;;;;;;;;;;21.70;73.70;;;;;;4939870;28;95173;-43
2023/10/11 11:08:25;;;;;;;;;;;21.70;73.70;;;;;;4946745;28;97861;-42
2023/10/11 11:10:54;;;;;;;;;;;21.70;73.70;;;;;;4937104;28;95687;-44
2023/10/11 11:13:25;;;;;;;;;;;21.70;73.70;;;;;;4949160;28;95525;-43
2023/10/11 11:15:55;;;;;;;;;;;21.70;73.70;;;;;;4945486;28;95612;-42
2023/10/11 11:18:31;;;;;;;;;;;21.70;73.70;;;;;;4943754;28;95612;-42
2023/10/11 11:20:59;;;;;;;;;;;21.80;73.80;;;;;;4944670;28;97526;-43
2023/10/11 11:23:27;;;;;;;;;;;21.70;73.70;;;;;;4941966;28;95287;-43
2023/10/11 11:25:53;;;;;;;;;;;21.80;73.70;;;;;;4943594;28;95017;-43
2023/10/11 11:28:20;;;;;;;;;;;21.80;73.80;;;;;;4938804;28;99257;-43
2023/10/11 11:30:52;;;;;;;;;;;21.80;73.80;;;;;;4924718;28;97308;-44
2023/10/11 11:33:35;;;;;;;;;;;21.80;73.80;;;;;;4939343;28;95443;-43
2023/10/11 11:36:10;;;;;;;;;;;21.80;73.70;;;;;;4940242;28;94978;-42
2023/10/11 11:38:37;;;;;;;;;;;21.80;73.80;;;;;;4943796;28;94773;-43
2023/10/11 11:41:05;;;;;;;;;;;21.80;73.80;;;;;;4938639;28;96302;-43
2023/10/11 11:43:34;;;;;;;;;;;21.80;73.80;;;;;;4945570;28;96069;-44
2023/10/11 11:46:02;;;;;;;;;;;21.80;73.70;;;;;;4943621;28;94011;-44
2023/10/11 11:48:28;;;;;;;;;;;21.80;73.60;;;;;;4937884;28;98819;-43
2023/10/11 11:50:56;;;;;;;;;;;21.90;73.70;;;;;;4939975;28;95146;-43
2023/10/11 11:53:22;;;;;;;;;;;21.90;73.80;;;;;;4935844;28;98016;-43
2023/10/11 11:55:47;;;;;;;;;;;21.90;73.70;;;;;;4951074;28;94832;-41
2023/10/11 11:58:16;;;;;;;;;;;22.00;73.70;;;;;;4934524;28;95809;-40
2023/10/11 12:01:08;;;;;;;;;;;22.00;73.70;;;;;;4939671;28;95498;-38
2023/10/11 12:03:36;;;;;;;;;;;22.00;73.70;;;;;;4937122;28;95443;-39
2023/10/11 12:06:11;;;;;;;;;;;21.90;73.40;;;;;;4940274;28;96300;-40
2023/10/11 12:08:37;;;;;;;;;;;21.90;73.70;;;;;;4947118;28;96135;-42
2023/10/11 12:11:05;;;;;;;;;;;21.90;73.70;;;;;;4940255;28;95244;-42
2023/10/11 12:13:30;;;;;;;;;;;22.00;73.80;;;;;;4947952;28;95931;-40
2023/10/11 12:15:56;;;;;;;;;;;22.10;73.70;;;;;;4941132;28;97327;-39
2023/10/11 12:18:32;;;;;;;;;;;22.20;73.40;;;;;;4932937;28;97183;-39
2023/10/11 12:20:58;;;;;;;;;;;22.20;73.00;;;;;;4939834;28;95367;-38
2023/10/11 12:23:23;;;;;;;;;;;22.30;72.70;;;;;;4936032;28;95877;-39
2023/10/11 12:25:49;;;;;;;;;;;22.30;72.30;;;;;;4943381;28;95990;-39
2023/10/11 12:28:14;;;;;;;;;;;22.30;72.70;;;;;;4935449;28;97564;-43
2023/10/11 12:30:44;;;;;;;;;;;22.30;72.80;;;;;;4940833;28;95387;-40
2023/10/11 12:33:14;;;;;;;;;;;22.30;72.80;;;;;;4932194;28;95405;-39
2023/10/11 12:35:41;;;;;;;;;;;22.30;72.50;;;;;;4919237;28;94889;-40
2023/10/11 12:38:08;;;;;;;;;;;22.30;72.50;;;;;;4951594;28;95113;-40
2023/10/11 12:40:34;;;;;;;;;;;22.30;72.50;;;;;;4943214;28;99131;-38
2023/10/11 12:43:01;;;;;;;;;;;22.40;72.50;;;;;;4946288;28;96683;-41
2023/10/11 12:45:26;;;;;;;;;;;22.40;72.40;;;;;;4944603;28;95567;-41
2023/10/11 12:47:52;;;;;;;;;;;22.50;73.00;;;;;;4946061;28;96049;-40
2023/10/11 12:50:18;;;;;;;;;;;22.60;72.50;;;;;;4944982;28;94840;-40
2023/10/11 12:52:45;;;;;;;;;;;22.70;72.70;;;;;;4947927;28;95631;-41
2023/10/11 12:55:12;;;;;;;;;;;22.70;72.60;;;;;;4947132;28;95341;-43
2023/10/11 12:57:41;;;;;;;;;;;22.70;72.40;;;;;;4943804;28;95727;-39
2023/10/11 13:00:28;;;;;;;;;;;22.80;73.00;;;;;;4949478;28;94726;-39
2023/10/11 13:03:15;;;;;;;;;;;22.90;72.80;;;;;;4930912;28;95645;-41
2023/10/11 13:05:43;;;;;;;;;;;23.00;72.80;;;;;;4951660;28;95497;-40
2023/10/11 13:08:11;;;;;;;;;;;23.00;72.80;;;;;;4948390;28;96896;-39
2023/10/11 13:10:40;;;;;;;;;;;23.00;69.80;;;;;;4950763;28;95076;-39
2023/10/11 13:13:09;;;;;;;;;;;22.90;69.10;;;;;;4949282;28;95028;-39
2023/10/11 13:15:34;;;;;;;;;;;22.90;69.20;;;;;;4946444;28;94736;-39
2023/10/11 13:17:59;;;;;;;;;;;22.90;69.50;;;;;;4938812;28;94843;-40
2023/10/11 13:20:31;;;;;;;;;;;22.90;69.80;;;;;;4951435;28;94503;-42
2023/10/11 13:22:56;;;;;;;;;;;22.90;69.00;;;;;;4945590;28;95044;-40
2023/10/11 13:25:23;;;;;;;;;;;22.90;68.50;;;;;;4948978;28;93818;-42
2023/10/11 13:27:49;;;;;;;;;;;22.90;68.40;;;;;;4945389;28;95161;-42
2023/10/11 13:30:15;;;;;;;;;;;23.00;67.00;;;;;;4949751;28;94691;-44
2023/10/11 13:32:40;;;;;;;;;;;23.00;66.70;;;;;;4944803;28;96550;-41
2023/10/11 13:35:12;;;;;;;;;;;23.10;66.80;;;;;;4946632;28;95294;-43
2023/10/11 13:37:37;;;;;;;;;;;23.10;66.60;;;;;;4950586;28;95335;-39
2023/10/11 13:40:05;;;;;;;;;;;23.00;67.00;;;;;;4949680;28;95764;-41
2023/10/11 13:42:37;;;;;;;;;;;23.10;66.80;;;;;;4952501;28;95700;-41
2023/10/11 13:45:03;;;;;;;;;;;23.10;66.90;;;;;;4946089;28;96032;-41
2023/10/11 13:47:33;;;;;;;;;;;23.00;67.00;;;;;;4951361;28;94708;-41
2023/10/11 13:49:59;;;;;;;;;;;23.10;67.20;;;;;;4946654;28;94367;-41
2023/10/11 13:52:25;;;;;;;;;;;23.10;67.10;;;;;;4945362;28;96058;-41
2023/10/11 13:54:52;;;;;;;;;;;23.10;66.80;;;;;;4947359;28;94694;-40
2023/10/11 13:57:21;;;;;;;;;;;23.10;67.80;;;;;;4954890;28;95762;-39
2023/10/11 13:59:47;;;;;;;;;;;23.10;66.90;;;;;;4942292;28;97004;-40
2023/10/11 14:10:16;;;;;;;;;;;23.20;65.80;;;;;;4949116;28;95064;-44
2023/10/11 14:12:45;;;;;;;;;;;23.20;66.10;;;;;;4943138;28;100447;-44
2023/10/11 14:15:17;;;;;;;;;;;23.30;66.50;;;;;;4946061;28;100696;-44
2023/10/11 14:17:48;;;;;;;;;;;23.30;65.50;;;;;;4938136;28;96887;-45
2023/10/11 14:20:25;;;;;;;;;;;23.30;65.90;;;;;;4946956;28;96441;-44
2023/10/11 14:22:53;;;;;;;;;;;23.30;66.60;;;;;;4941448;28;99394;-41
2023/10/11 14:25:19;;;;;;;;;;;23.30;65.70;;;;;;4949607;28;94737;-42
2023/10/11 14:27:48;;;;;;;;;;;23.30;66.50;;;;;;4939642;28;101075;-40
2023/10/11 14:30:14;;;;;;;;;;;23.40;66.50;;;;;;4947500;28;95289;-40
2023/10/11 14:32:40;;;;;;;;;;;23.40;66.30;;;;;;4943418;28;96399;-40
2023/10/11 14:35:08;;;;;;;;;;;23.40;66.60;;;;;;4936427;28;94802;-39
2023/10/11 14:37:34;;;;;;;;;;;23.40;67.00;;;;;;4950019;28;95002;-39
2023/10/11 14:40:00;;;;;;;;;;;23.40;66.70;;;;;;4938213;28;100322;-43
2023/10/11 14:42:29;;;;;;;;;;;23.40;67.40;;;;;;4939031;28;101889;-38
2023/10/11 14:44:55;;;;;;;;;;;23.40;67.20;;;;;;4942401;28;96720;-40
2023/10/11 14:47:24;;;;;;;;;;;23.40;67.80;;;;;;4943675;28;96384;-39
2023/10/11 14:49:50;;;;;;;;;;;23.40;67.70;;;;;;4934705;28;95556;-40
2023/10/11 14:52:18;;;;;;;;;;;23.40;67.50;;;;;;4934645;28;95127;-42
2023/10/11 14:54:45;;;;;;;;;;;23.40;68.00;;;;;;4944855;28;94812;-38
2023/10/11 14:57:10;;;;;;;;;;;23.50;66.40;;;;;;4938399;28;98293;-39
2023/10/11 14:59:36;;;;;;;;;;;23.40;66.50;;;;;;4945306;28;96541;-38
2023/10/11 15:02:04;;;;;;;;;;;23.50;66.00;;;;;;4942949;28;96036;-38
2023/10/11 15:04:32;;;;;;;;;;;23.50;66.60;;;;;;4937806;28;94282;-38